sensor_id;sensor_type;location;lat;lon;timestamp;P1;durP1;ratioP1;P2;durP2;ratioP2
63536;SDS011;49686;51.880;5.632;2023-03-31T00:01:45;8.70;;;3.47;;
63536;SDS011;49686;51.880;5.632;2023-03-31T00:04:12;7.47;;;2.20;;
63536;SDS011;49686;51.880;5.632;2023-03-31T00:06:40;10.02;;;2.28;;
63536;SDS011;49686;51.880;5.632;2023-03-31T00:09:09;10.07;;;3.10;;
63536;SDS011;49686;51.880;5.632;2023-03-31T00:11:37;10.15;;;3.13;;
63536;SDS011;49686;51.880;5.632;2023-03-31T00:14:04;7.88;;;2.80;;
63536;SDS011;49686;51.880;5.632;2023-03-31T00:16:34;9.10;;;2.17;;
63536;SDS011;49686;51.880;5.632;2023-03-31T00:19:01;8.00;;;2.58;;
63536;SDS011;49686;51.880;5.632;2023-03-31T00:21:28;7.78;;;3.10;;
63536;SDS011;49686;51.880;5.632;2023-03-31T00:23:56;8.90;;;2.65;;
63536;SDS011;49686;51.880;5.632;2023-03-31T00:26:24;6.18;;;2.25;;
63536;SDS011;49686;51.880;5.632;2023-03-31T00:28:51;9.18;;;2.53;;
63536;SDS011;49686;51.880;5.632;2023-03-31T00:31:19;5.65;;;2.45;;
63536;SDS011;49686;51.880;5.632;2023-03-31T00:33:48;9.98;;;2.53;;
63536;SDS011;49686;51.880;5.632;2023-03-31T00:36:15;10.57;;;2.92;;
63536;SDS011;49686;51.880;5.632;2023-03-31T00:38:42;9.60;;;2.80;;
63536;SDS011;49686;51.880;5.632;2023-03-31T00:41:10;7.25;;;2.72;;
63536;SDS011;49686;51.880;5.632;2023-03-31T00:43:37;10.15;;;2.70;;
63536;SDS011;49686;51.880;5.632;2023-03-31T00:46:06;10.43;;;2.60;;
63536;SDS011;49686;51.880;5.632;2023-03-31T00:48:44;6.97;;;2.00;;
63536;SDS011;49686;51.880;5.632;2023-03-31T00:51:19;7.85;;;2.95;;
63536;SDS011;49686;51.880;5.632;2023-03-31T00:56:17;7.10;;;2.55;;
63536;SDS011;49686;51.880;5.632;2023-03-31T00:58:44;6.20;;;2.17;;
63536;SDS011;49686;51.880;5.632;2023-03-31T01:01:12;6.63;;;2.10;;
63536;SDS011;49686;51.880;5.632;2023-03-31T01:03:42;8.05;;;2.58;;
63536;SDS011;49686;51.880;5.632;2023-03-31T01:06:10;8.40;;;2.38;;
63536;SDS011;49686;51.880;5.632;2023-03-31T01:11:05;6.90;;;1.80;;
63536;SDS011;49686;51.880;5.632;2023-03-31T01:13:35;6.10;;;2.10;;
63536;SDS011;49686;51.880;5.632;2023-03-31T01:16:05;5.30;;;1.88;;
63536;SDS011;49686;51.880;5.632;2023-03-31T01:18:32;8.52;;;2.03;;
63536;SDS011;49686;51.880;5.632;2023-03-31T01:27:00;8.55;;;2.08;;
63536;SDS011;49686;51.880;5.632;2023-03-31T01:29:56;7.88;;;1.92;;
63536;SDS011;49686;51.880;5.632;2023-03-31T01:32:52;6.28;;;2.05;;
63536;SDS011;49686;51.880;5.632;2023-03-31T01:35:50;5.80;;;2.42;;
63536;SDS011;49686;51.880;5.632;2023-03-31T01:38:36;4.57;;;1.60;;
63536;SDS011;49686;51.880;5.632;2023-03-31T01:41:30;5.82;;;1.80;;
63536;SDS011;49686;51.880;5.632;2023-03-31T01:44:07;6.20;;;2.20;;
63536;SDS011;49686;51.880;5.632;2023-03-31T01:46:44;9.10;;;1.95;;
63536;SDS011;49686;51.880;5.632;2023-03-31T01:49:19;6.65;;;2.40;;
63536;SDS011;49686;51.880;5.632;2023-03-31T01:51:51;7.32;;;1.88;;
63536;SDS011;49686;51.880;5.632;2023-03-31T01:54:26;5.93;;;1.60;;
63536;SDS011;49686;51.880;5.632;2023-03-31T01:57:03;6.22;;;2.03;;
63536;SDS011;49686;51.880;5.632;2023-03-31T01:59:37;10.00;;;2.20;;
63536;SDS011;49686;51.880;5.632;2023-03-31T02:02:09;11.05;;;3.10;;
63536;SDS011;49686;51.880;5.632;2023-03-31T02:04:40;6.60;;;2.05;;
63536;SDS011;49686;51.880;5.632;2023-03-31T02:07:12;6.85;;;1.90;;
63536;SDS011;49686;51.880;5.632;2023-03-31T02:09:43;7.78;;;1.80;;
63536;SDS011;49686;51.880;5.632;2023-03-31T02:12:15;8.82;;;2.03;;
63536;SDS011;49686;51.880;5.632;2023-03-31T02:14:45;5.53;;;2.08;;
63536;SDS011;49686;51.880;5.632;2023-03-31T02:17:16;6.63;;;2.13;;
63536;SDS011;49686;51.880;5.632;2023-03-31T02:19:48;6.85;;;1.70;;
63536;SDS011;49686;51.880;5.632;2023-03-31T02:22:18;6.60;;;1.85;;
63536;SDS011;49686;51.880;5.632;2023-03-31T02:24:47;8.40;;;2.22;;
63536;SDS011;49686;51.880;5.632;2023-03-31T02:27:19;6.60;;;2.05;;
63536;SDS011;49686;51.880;5.632;2023-03-31T02:29:49;4.85;;;1.58;;
63536;SDS011;49686;51.880;5.632;2023-03-31T02:32:19;11.00;;;1.80;;
63536;SDS011;49686;51.880;5.632;2023-03-31T02:34:50;8.73;;;2.20;;
63536;SDS011;49686;51.880;5.632;2023-03-31T02:37:16;8.75;;;2.30;;
63536;SDS011;49686;51.880;5.632;2023-03-31T02:39:44;7.78;;;2.50;;
63536;SDS011;49686;51.880;5.632;2023-03-31T02:42:14;10.05;;;2.33;;
63536;SDS011;49686;51.880;5.632;2023-03-31T02:44:43;9.13;;;2.33;;
63536;SDS011;49686;51.880;5.632;2023-03-31T02:47:10;10.35;;;1.90;;
63536;SDS011;49686;51.880;5.632;2023-03-31T02:49:40;7.95;;;1.92;;
63536;SDS011;49686;51.880;5.632;2023-03-31T02:55:10;8.07;;;2.10;;
63536;SDS011;49686;51.880;5.632;2023-03-31T03:00:59;9.95;;;2.28;;
63536;SDS011;49686;51.880;5.632;2023-03-31T03:03:37;7.80;;;1.70;;
63536;SDS011;49686;51.880;5.632;2023-03-31T03:06:16;8.93;;;1.58;;
63536;SDS011;49686;51.880;5.632;2023-03-31T03:08:55;8.95;;;1.40;;
63536;SDS011;49686;51.880;5.632;2023-03-31T03:11:43;5.20;;;1.60;;
63536;SDS011;49686;51.880;5.632;2023-03-31T03:14:17;10.88;;;1.70;;
63536;SDS011;49686;51.880;5.632;2023-03-31T03:16:54;5.78;;;1.45;;
63536;SDS011;49686;51.880;5.632;2023-03-31T03:19:26;6.20;;;1.60;;
63536;SDS011;49686;51.880;5.632;2023-03-31T03:21:53;5.32;;;1.63;;
63536;SDS011;49686;51.880;5.632;2023-03-31T03:24:20;6.90;;;1.73;;
63536;SDS011;49686;51.880;5.632;2023-03-31T03:26:47;11.20;;;1.80;;
63536;SDS011;49686;51.880;5.632;2023-03-31T03:29:14;8.85;;;2.33;;
63536;SDS011;49686;51.880;5.632;2023-03-31T03:31:41;6.90;;;1.83;;
63536;SDS011;49686;51.880;5.632;2023-03-31T03:34:09;5.75;;;1.60;;
63536;SDS011;49686;51.880;5.632;2023-03-31T03:36:36;9.20;;;1.95;;
63536;SDS011;49686;51.880;5.632;2023-03-31T03:39:06;3.47;;;1.17;;
63536;SDS011;49686;51.880;5.632;2023-03-31T03:41:33;7.32;;;1.90;;
63536;SDS011;49686;51.880;5.632;2023-03-31T03:44:01;7.18;;;2.22;;
63536;SDS011;49686;51.880;5.632;2023-03-31T03:46:28;6.82;;;1.48;;
63536;SDS011;49686;51.880;5.632;2023-03-31T03:48:54;8.40;;;2.38;;
63536;SDS011;49686;51.880;5.632;2023-03-31T03:51:23;9.60;;;2.33;;
63536;SDS011;49686;51.880;5.632;2023-03-31T03:53:49;5.65;;;2.20;;
63536;SDS011;49686;51.880;5.632;2023-03-31T03:56:16;10.02;;;2.30;;
63536;SDS011;49686;51.880;5.632;2023-03-31T03:58:43;8.10;;;2.20;;
63536;SDS011;49686;51.880;5.632;2023-03-31T04:01:10;5.90;;;2.20;;
63536;SDS011;49686;51.880;5.632;2023-03-31T04:03:36;9.98;;;2.42;;
63536;SDS011;49686;51.880;5.632;2023-03-31T04:06:03;10.02;;;3.40;;
63536;SDS011;49686;51.880;5.632;2023-03-31T04:08:32;7.28;;;2.67;;
63536;SDS011;49686;51.880;5.632;2023-03-31T04:10:59;13.07;;;2.80;;
63536;SDS011;49686;51.880;5.632;2023-03-31T04:13:26;7.68;;;2.33;;
63536;SDS011;49686;51.880;5.632;2023-03-31T04:15:53;8.18;;;2.45;;
63536;SDS011;49686;51.880;5.632;2023-03-31T04:18:20;7.03;;;2.72;;
63536;SDS011;49686;51.880;5.632;2023-03-31T04:20:46;9.55;;;2.28;;
63536;SDS011;49686;51.880;5.632;2023-03-31T04:23:13;10.25;;;2.95;;
63536;SDS011;49686;51.880;5.632;2023-03-31T04:25:42;10.18;;;2.35;;
63536;SDS011;49686;51.880;5.632;2023-03-31T04:28:08;8.63;;;2.93;;
63536;SDS011;49686;51.880;5.632;2023-03-31T04:30:35;12.13;;;2.53;;
63536;SDS011;49686;51.880;5.632;2023-03-31T04:33:02;9.68;;;2.08;;
63536;SDS011;49686;51.880;5.632;2023-03-31T04:35:29;7.70;;;1.83;;
63536;SDS011;49686;51.880;5.632;2023-03-31T04:37:56;12.60;;;2.53;;
63536;SDS011;49686;51.880;5.632;2023-03-31T04:40:23;12.27;;;2.22;;
63536;SDS011;49686;51.880;5.632;2023-03-31T04:42:52;8.65;;;2.13;;
63536;SDS011;49686;51.880;5.632;2023-03-31T04:45:19;11.63;;;2.00;;
63536;SDS011;49686;51.880;5.632;2023-03-31T04:47:45;11.02;;;2.05;;
63536;SDS011;49686;51.880;5.632;2023-03-31T04:50:13;10.23;;;2.25;;
63536;SDS011;49686;51.880;5.632;2023-03-31T04:52:42;7.82;;;1.70;;
63536;SDS011;49686;51.880;5.632;2023-03-31T04:55:10;7.18;;;1.88;;
63536;SDS011;49686;51.880;5.632;2023-03-31T04:57:36;9.32;;;1.58;;
63536;SDS011;49686;51.880;5.632;2023-03-31T05:00:05;6.80;;;1.67;;
63536;SDS011;49686;51.880;5.632;2023-03-31T05:02:33;9.65;;;1.77;;
63536;SDS011;49686;51.880;5.632;2023-03-31T05:05:00;10.32;;;2.30;;
63536;SDS011;49686;51.880;5.632;2023-03-31T05:07:27;9.10;;;2.20;;
63536;SDS011;49686;51.880;5.632;2023-03-31T05:09:54;10.10;;;1.90;;
63536;SDS011;49686;51.880;5.632;2023-03-31T05:12:21;8.23;;;1.90;;
63536;SDS011;49686;51.880;5.632;2023-03-31T05:14:48;10.23;;;1.90;;
63536;SDS011;49686;51.880;5.632;2023-03-31T05:17:16;4.50;;;1.38;;
63536;SDS011;49686;51.880;5.632;2023-03-31T05:19:43;9.82;;;2.95;;
63536;SDS011;49686;51.880;5.632;2023-03-31T05:22:10;9.38;;;1.83;;
63536;SDS011;49686;51.880;5.632;2023-03-31T05:24:37;5.57;;;2.63;;
63536;SDS011;49686;51.880;5.632;2023-03-31T05:27:03;7.28;;;1.50;;
63536;SDS011;49686;51.880;5.632;2023-03-31T05:29:30;10.27;;;1.70;;
63536;SDS011;49686;51.880;5.632;2023-03-31T05:31:57;8.63;;;2.35;;
63536;SDS011;49686;51.880;5.632;2023-03-31T05:34:25;9.70;;;2.70;;
63536;SDS011;49686;51.880;5.632;2023-03-31T05:36:56;10.35;;;1.80;;
63536;SDS011;49686;51.880;5.632;2023-03-31T05:39:23;11.95;;;3.40;;
63536;SDS011;49686;51.880;5.632;2023-03-31T05:41:50;3.78;;;1.58;;
63536;SDS011;49686;51.880;5.632;2023-03-31T05:44:17;7.40;;;1.48;;
63536;SDS011;49686;51.880;5.632;2023-03-31T05:46:43;6.72;;;1.80;;
63536;SDS011;49686;51.880;5.632;2023-03-31T05:49:12;8.60;;;2.15;;
63536;SDS011;49686;51.880;5.632;2023-03-31T05:51:40;8.98;;;1.77;;
63536;SDS011;49686;51.880;5.632;2023-03-31T05:54:07;7.32;;;1.77;;
63536;SDS011;49686;51.880;5.632;2023-03-31T05:56:33;6.25;;;2.55;;
63536;SDS011;49686;51.880;5.632;2023-03-31T05:59:01;6.97;;;1.70;;
63536;SDS011;49686;51.880;5.632;2023-03-31T06:01:30;11.55;;;1.70;;
63536;SDS011;49686;51.880;5.632;2023-03-31T06:03:57;8.65;;;1.95;;
63536;SDS011;49686;51.880;5.632;2023-03-31T06:06:24;8.55;;;1.80;;
63536;SDS011;49686;51.880;5.632;2023-03-31T06:08:52;4.25;;;1.60;;
63536;SDS011;49686;51.880;5.632;2023-03-31T06:11:20;9.00;;;1.90;;
63536;SDS011;49686;51.880;5.632;2023-03-31T06:13:47;9.45;;;1.88;;
63536;SDS011;49686;51.880;5.632;2023-03-31T06:16:17;9.52;;;1.85;;
63536;SDS011;49686;51.880;5.632;2023-03-31T06:18:44;5.85;;;1.50;;
63536;SDS011;49686;51.880;5.632;2023-03-31T06:21:11;4.97;;;1.65;;
63536;SDS011;49686;51.880;5.632;2023-03-31T06:23:39;6.50;;;1.77;;
63536;SDS011;49686;51.880;5.632;2023-03-31T06:26:07;4.47;;;1.33;;
63536;SDS011;49686;51.880;5.632;2023-03-31T06:28:36;5.18;;;1.20;;
63536;SDS011;49686;51.880;5.632;2023-03-31T06:31:04;6.68;;;1.90;;
63536;SDS011;49686;51.880;5.632;2023-03-31T06:35:59;6.28;;;1.75;;
63536;SDS011;49686;51.880;5.632;2023-03-31T06:38:27;3.42;;;1.20;;
63536;SDS011;49686;51.880;5.632;2023-03-31T06:40:54;5.93;;;1.50;;
63536;SDS011;49686;51.880;5.632;2023-03-31T06:43:22;5.10;;;2.60;;
63536;SDS011;49686;51.880;5.632;2023-03-31T06:45:49;8.13;;;2.65;;
63536;SDS011;49686;51.880;5.632;2023-03-31T06:48:19;3.85;;;1.60;;
63536;SDS011;49686;51.880;5.632;2023-03-31T06:50:46;8.05;;;1.70;;
63536;SDS011;49686;51.880;5.632;2023-03-31T06:53:12;5.57;;;2.72;;
63536;SDS011;49686;51.880;5.632;2023-03-31T06:55:39;4.88;;;1.45;;
63536;SDS011;49686;51.880;5.632;2023-03-31T06:58:06;6.00;;;2.08;;
63536;SDS011;49686;51.880;5.632;2023-03-31T07:00:34;9.15;;;2.97;;
63536;SDS011;49686;51.880;5.632;2023-03-31T07:03:02;5.82;;;1.50;;
63536;SDS011;49686;51.880;5.632;2023-03-31T07:05:29;7.93;;;2.63;;
63536;SDS011;49686;51.880;5.632;2023-03-31T07:07:57;5.85;;;1.30;;
63536;SDS011;49686;51.880;5.632;2023-03-31T07:10:25;3.77;;;1.40;;
63536;SDS011;49686;51.880;5.632;2023-03-31T07:15:20;3.08;;;0.95;;
63536;SDS011;49686;51.880;5.632;2023-03-31T07:17:48;7.40;;;1.30;;
63536;SDS011;49686;51.880;5.632;2023-03-31T07:20:15;6.95;;;1.40;;
63536;SDS011;49686;51.880;5.632;2023-03-31T07:22:43;3.93;;;1.30;;
63536;SDS011;49686;51.880;5.632;2023-03-31T07:25:13;5.07;;;1.30;;
63536;SDS011;49686;51.880;5.632;2023-03-31T07:27:41;3.38;;;1.08;;
63536;SDS011;49686;51.880;5.632;2023-03-31T07:30:09;5.90;;;1.75;;
63536;SDS011;49686;51.880;5.632;2023-03-31T07:32:39;3.35;;;1.05;;
63536;SDS011;49686;51.880;5.632;2023-03-31T07:35:08;5.53;;;1.48;;
63536;SDS011;49686;51.880;5.632;2023-03-31T07:37:36;5.00;;;1.67;;
63536;SDS011;49686;51.880;5.632;2023-03-31T07:40:03;4.53;;;1.35;;
63536;SDS011;49686;51.880;5.632;2023-03-31T07:42:31;5.20;;;1.40;;
63536;SDS011;49686;51.880;5.632;2023-03-31T07:44:59;4.40;;;1.70;;
63536;SDS011;49686;51.880;5.632;2023-03-31T07:47:26;3.95;;;1.23;;
63536;SDS011;49686;51.880;5.632;2023-03-31T07:49:53;3.22;;;1.20;;
63536;SDS011;49686;51.880;5.632;2023-03-31T07:52:22;6.72;;;1.70;;
63536;SDS011;49686;51.880;5.632;2023-03-31T07:54:48;4.00;;;1.33;;
63536;SDS011;49686;51.880;5.632;2023-03-31T07:57:16;5.82;;;1.75;;
63536;SDS011;49686;51.880;5.632;2023-03-31T07:59:43;3.72;;;1.77;;
63536;SDS011;49686;51.880;5.632;2023-03-31T08:02:09;3.33;;;1.38;;
63536;SDS011;49686;51.880;5.632;2023-03-31T08:04:38;4.00;;;1.27;;
63536;SDS011;49686;51.880;5.632;2023-03-31T08:07:05;4.22;;;1.60;;
63536;SDS011;49686;51.880;5.632;2023-03-31T08:09:33;8.57;;;1.70;;
63536;SDS011;49686;51.880;5.632;2023-03-31T08:12:00;5.20;;;1.70;;
63536;SDS011;49686;51.880;5.632;2023-03-31T08:14:27;7.05;;;1.92;;
63536;SDS011;49686;51.880;5.632;2023-03-31T08:17:06;7.47;;;2.13;;
63536;SDS011;49686;51.880;5.632;2023-03-31T08:19:33;5.60;;;1.58;;
63536;SDS011;49686;51.880;5.632;2023-03-31T08:22:00;5.15;;;1.48;;
63536;SDS011;49686;51.880;5.632;2023-03-31T08:24:27;4.93;;;1.85;;
63536;SDS011;49686;51.880;5.632;2023-03-31T08:26:55;6.10;;;1.58;;
63536;SDS011;49686;51.880;5.632;2023-03-31T08:29:22;4.68;;;1.67;;
63536;SDS011;49686;51.880;5.632;2023-03-31T08:31:49;10.35;;;2.30;;
63536;SDS011;49686;51.880;5.632;2023-03-31T08:34:15;9.90;;;1.85;;
63536;SDS011;49686;51.880;5.632;2023-03-31T08:36:42;8.77;;;1.60;;
63536;SDS011;49686;51.880;5.632;2023-03-31T08:39:09;8.75;;;2.25;;
63536;SDS011;49686;51.880;5.632;2023-03-31T08:41:39;12.68;;;2.40;;
63536;SDS011;49686;51.880;5.632;2023-03-31T08:44:15;6.60;;;1.73;;
63536;SDS011;49686;51.880;5.632;2023-03-31T08:46:46;9.23;;;2.13;;
63536;SDS011;49686;51.880;5.632;2023-03-31T08:49:15;7.78;;;2.78;;
63536;SDS011;49686;51.880;5.632;2023-03-31T08:51:46;9.48;;;2.00;;
63536;SDS011;49686;51.880;5.632;2023-03-31T08:54:15;14.98;;;2.95;;
63536;SDS011;49686;51.880;5.632;2023-03-31T08:56:46;11.00;;;2.80;;
63536;SDS011;49686;51.880;5.632;2023-03-31T08:59:25;13.52;;;2.63;;
63536;SDS011;49686;51.880;5.632;2023-03-31T09:01:55;11.38;;;2.70;;
63536;SDS011;49686;51.880;5.632;2023-03-31T09:04:36;6.35;;;2.00;;
63536;SDS011;49686;51.880;5.632;2023-03-31T09:07:29;11.73;;;2.65;;
63536;SDS011;49686;51.880;5.632;2023-03-31T09:10:02;14.68;;;2.75;;
63536;SDS011;49686;51.880;5.632;2023-03-31T09:12:46;10.73;;;2.13;;
63536;SDS011;49686;51.880;5.632;2023-03-31T09:15:23;11.02;;;2.78;;
63536;SDS011;49686;51.880;5.632;2023-03-31T09:17:53;11.93;;;3.05;;
63536;SDS011;49686;51.880;5.632;2023-03-31T09:20:24;11.43;;;3.35;;
63536;SDS011;49686;51.880;5.632;2023-03-31T09:22:56;15.02;;;2.28;;
63536;SDS011;49686;51.880;5.632;2023-03-31T09:25:30;10.65;;;2.40;;
63536;SDS011;49686;51.880;5.632;2023-03-31T09:27:59;17.55;;;2.95;;
63536;SDS011;49686;51.880;5.632;2023-03-31T09:30:30;12.23;;;2.47;;
63536;SDS011;49686;51.880;5.632;2023-03-31T09:33:02;6.97;;;1.80;;
63536;SDS011;49686;51.880;5.632;2023-03-31T09:35:36;15.80;;;2.72;;
63536;SDS011;49686;51.880;5.632;2023-03-31T09:38:03;11.75;;;2.72;;
63536;SDS011;49686;51.880;5.632;2023-03-31T09:40:30;6.75;;;1.75;;
63536;SDS011;49686;51.880;5.632;2023-03-31T09:42:57;16.15;;;2.33;;
63536;SDS011;49686;51.880;5.632;2023-03-31T09:45:26;10.55;;;2.70;;
63536;SDS011;49686;51.880;5.632;2023-03-31T09:47:55;12.15;;;2.35;;
63536;SDS011;49686;51.880;5.632;2023-03-31T09:50:24;12.18;;;2.72;;
63536;SDS011;49686;51.880;5.632;2023-03-31T09:52:54;10.80;;;2.75;;
63536;SDS011;49686;51.880;5.632;2023-03-31T09:55:23;9.38;;;2.38;;
63536;SDS011;49686;51.880;5.632;2023-03-31T09:58:05;12.32;;;2.05;;
63536;SDS011;49686;51.880;5.632;2023-03-31T10:00:32;14.40;;;2.42;;
63536;SDS011;49686;51.880;5.632;2023-03-31T10:03:01;11.35;;;2.20;;
63536;SDS011;49686;51.880;5.632;2023-03-31T10:05:31;11.32;;;2.25;;
63536;SDS011;49686;51.880;5.632;2023-03-31T10:10:56;9.05;;;2.28;;
63536;SDS011;49686;51.880;5.632;2023-03-31T10:13:34;9.38;;;2.00;;
63536;SDS011;49686;51.880;5.632;2023-03-31T10:16:11;6.45;;;1.38;;
63536;SDS011;49686;51.880;5.632;2023-03-31T10:18:41;10.48;;;1.85;;
63536;SDS011;49686;51.880;5.632;2023-03-31T10:21:14;14.82;;;2.45;;
63536;SDS011;49686;51.880;5.632;2023-03-31T10:23:46;9.30;;;1.85;;
63536;SDS011;49686;51.880;5.632;2023-03-31T10:26:15;7.10;;;1.70;;
63536;SDS011;49686;51.880;5.632;2023-03-31T10:28:43;12.25;;;2.25;;
63536;SDS011;49686;51.880;5.632;2023-03-31T10:31:12;10.00;;;2.20;;
63536;SDS011;49686;51.880;5.632;2023-03-31T10:33:41;6.45;;;1.50;;
63536;SDS011;49686;51.880;5.632;2023-03-31T10:36:14;10.38;;;1.50;;
63536;SDS011;49686;51.880;5.632;2023-03-31T10:38:46;11.00;;;2.40;;
63536;SDS011;49686;51.880;5.632;2023-03-31T10:41:16;8.85;;;1.88;;
63536;SDS011;49686;51.880;5.632;2023-03-31T10:43:47;7.90;;;2.33;;
63536;SDS011;49686;51.880;5.632;2023-03-31T10:46:16;8.05;;;1.92;;
63536;SDS011;49686;51.880;5.632;2023-03-31T10:48:46;7.57;;;1.65;;
63536;SDS011;49686;51.880;5.632;2023-03-31T10:51:14;8.25;;;2.10;;
63536;SDS011;49686;51.880;5.632;2023-03-31T10:53:44;12.07;;;2.30;;
63536;SDS011;49686;51.880;5.632;2023-03-31T10:56:22;6.32;;;1.58;;
63536;SDS011;49686;51.880;5.632;2023-03-31T10:59:09;6.68;;;1.90;;
63536;SDS011;49686;51.880;5.632;2023-03-31T11:01:48;7.70;;;1.98;;
63536;SDS011;49686;51.880;5.632;2023-03-31T11:04:39;5.57;;;1.40;;
63536;SDS011;49686;51.880;5.632;2023-03-31T11:07:13;11.70;;;1.73;;
63536;SDS011;49686;51.880;5.632;2023-03-31T11:09:53;6.25;;;1.90;;
63536;SDS011;49686;51.880;5.632;2023-03-31T11:12:29;8.93;;;1.65;;
63536;SDS011;49686;51.880;5.632;2023-03-31T11:15:02;10.35;;;1.73;;
63536;SDS011;49686;51.880;5.632;2023-03-31T11:17:40;7.35;;;2.20;;
63536;SDS011;49686;51.880;5.632;2023-03-31T11:20:27;9.25;;;2.10;;
63536;SDS011;49686;51.880;5.632;2023-03-31T11:23:01;7.15;;;1.85;;
63536;SDS011;49686;51.880;5.632;2023-03-31T11:25:37;6.80;;;1.50;;
63536;SDS011;49686;51.880;5.632;2023-03-31T11:28:23;7.68;;;1.45;;
63536;SDS011;49686;51.880;5.632;2023-03-31T11:31:00;11.80;;;2.10;;
63536;SDS011;49686;51.880;5.632;2023-03-31T11:33:42;14.00;;;2.17;;
63536;SDS011;49686;51.880;5.632;2023-03-31T11:36:26;8.00;;;1.50;;
63536;SDS011;49686;51.880;5.632;2023-03-31T11:39:08;10.10;;;1.80;;
63536;SDS011;49686;51.880;5.632;2023-03-31T11:41:45;8.15;;;1.73;;
63536;SDS011;49686;51.880;5.632;2023-03-31T11:44:15;8.02;;;2.30;;
63536;SDS011;49686;51.880;5.632;2023-03-31T11:46:45;8.43;;;1.60;;
63536;SDS011;49686;51.880;5.632;2023-03-31T11:49:14;6.70;;;1.52;;
63536;SDS011;49686;51.880;5.632;2023-03-31T11:51:47;11.30;;;1.90;;
63536;SDS011;49686;51.880;5.632;2023-03-31T11:54:19;6.32;;;1.42;;
63536;SDS011;49686;51.880;5.632;2023-03-31T11:56:52;7.47;;;1.75;;
63536;SDS011;49686;51.880;5.632;2023-03-31T11:59:20;5.55;;;1.40;;
63536;SDS011;49686;51.880;5.632;2023-03-31T12:01:52;8.70;;;1.58;;
63536;SDS011;49686;51.880;5.632;2023-03-31T12:04:25;10.68;;;1.63;;
63536;SDS011;49686;51.880;5.632;2023-03-31T12:07:01;9.05;;;1.70;;
63536;SDS011;49686;51.880;5.632;2023-03-31T12:09:32;10.32;;;2.45;;
63536;SDS011;49686;51.880;5.632;2023-03-31T12:12:04;9.68;;;1.67;;
63536;SDS011;49686;51.880;5.632;2023-03-31T12:14:36;7.50;;;1.88;;
63536;SDS011;49686;51.880;5.632;2023-03-31T12:17:08;7.22;;;1.63;;
63536;SDS011;49686;51.880;5.632;2023-03-31T12:19:39;10.88;;;2.30;;
63536;SDS011;49686;51.880;5.632;2023-03-31T12:22:13;8.85;;;2.50;;
63536;SDS011;49686;51.880;5.632;2023-03-31T12:24:43;6.57;;;2.20;;
63536;SDS011;49686;51.880;5.632;2023-03-31T12:27:11;6.85;;;1.77;;
63536;SDS011;49686;51.880;5.632;2023-03-31T12:29:42;11.63;;;1.90;;
63536;SDS011;49686;51.880;5.632;2023-03-31T12:32:13;6.88;;;1.70;;
63536;SDS011;49686;51.880;5.632;2023-03-31T12:34:44;6.25;;;1.70;;
63536;SDS011;49686;51.880;5.632;2023-03-31T12:37:34;8.25;;;2.42;;
63536;SDS011;49686;51.880;5.632;2023-03-31T12:40:15;5.35;;;1.00;;
63536;SDS011;49686;51.880;5.632;2023-03-31T12:42:53;4.20;;;1.23;;
63536;SDS011;49686;51.880;5.632;2023-03-31T12:45:32;3.97;;;1.10;;
63536;SDS011;49686;51.880;5.632;2023-03-31T12:48:15;7.70;;;1.52;;
63536;SDS011;49686;51.880;5.632;2023-03-31T12:51:02;4.43;;;1.02;;
63536;SDS011;49686;51.880;5.632;2023-03-31T12:53:43;4.97;;;1.67;;
63536;SDS011;49686;51.880;5.632;2023-03-31T12:56:18;5.50;;;1.30;;
63536;SDS011;49686;51.880;5.632;2023-03-31T12:58:45;6.03;;;1.50;;
63536;SDS011;49686;51.880;5.632;2023-03-31T13:01:13;8.18;;;1.80;;
63536;SDS011;49686;51.880;5.632;2023-03-31T13:03:51;7.93;;;1.60;;
63536;SDS011;49686;51.880;5.632;2023-03-31T13:12:18;5.93;;;1.20;;
63536;SDS011;49686;51.880;5.632;2023-03-31T13:14:47;7.05;;;1.55;;
63536;SDS011;49686;51.880;5.632;2023-03-31T13:17:23;6.18;;;1.30;;
63536;SDS011;49686;51.880;5.632;2023-03-31T13:19:56;5.57;;;1.67;;
63536;SDS011;49686;51.880;5.632;2023-03-31T13:22:38;6.43;;;1.10;;
63536;SDS011;49686;51.880;5.632;2023-03-31T13:28:15;7.80;;;1.10;;
63536;SDS011;49686;51.880;5.632;2023-03-31T13:30:50;4.88;;;1.20;;
63536;SDS011;49686;51.880;5.632;2023-03-31T13:33:19;5.18;;;1.50;;
63536;SDS011;49686;51.880;5.632;2023-03-31T13:36:11;4.13;;;1.15;;
63536;SDS011;49686;51.880;5.632;2023-03-31T13:38:50;6.05;;;1.67;;
63536;SDS011;49686;51.880;5.632;2023-03-31T13:41:35;9.35;;;1.88;;
63536;SDS011;49686;51.880;5.632;2023-03-31T13:44:20;7.38;;;1.33;;
63536;SDS011;49686;51.880;5.632;2023-03-31T13:47:12;6.25;;;2.10;;
63536;SDS011;49686;51.880;5.632;2023-03-31T13:49:59;4.72;;;1.77;;
63536;SDS011;49686;51.880;5.632;2023-03-31T13:52:42;5.75;;;1.30;;
63536;SDS011;49686;51.880;5.632;2023-03-31T13:55:24;4.78;;;1.20;;
63536;SDS011;49686;51.880;5.632;2023-03-31T13:58:14;7.20;;;1.30;;
63536;SDS011;49686;51.880;5.632;2023-03-31T14:01:14;7.93;;;2.03;;
63536;SDS011;49686;51.880;5.632;2023-03-31T14:04:05;5.30;;;2.33;;
63536;SDS011;49686;51.880;5.632;2023-03-31T14:06:42;7.82;;;1.48;;
63536;SDS011;49686;51.880;5.632;2023-03-31T14:09:15;4.18;;;0.80;;
63536;SDS011;49686;51.880;5.632;2023-03-31T14:11:48;4.60;;;1.08;;
63536;SDS011;49686;51.880;5.632;2023-03-31T14:14:16;3.78;;;0.90;;
63536;SDS011;49686;51.880;5.632;2023-03-31T14:16:44;4.78;;;0.90;;
63536;SDS011;49686;51.880;5.632;2023-03-31T14:22:11;2.25;;;0.95;;
63536;SDS011;49686;51.880;5.632;2023-03-31T14:24:45;1.98;;;0.90;;
63536;SDS011;49686;51.880;5.632;2023-03-31T14:27:25;4.28;;;1.20;;
63536;SDS011;49686;51.880;5.632;2023-03-31T14:30:09;2.63;;;1.23;;
63536;SDS011;49686;51.880;5.632;2023-03-31T14:32:44;4.82;;;0.88;;
63536;SDS011;49686;51.880;5.632;2023-03-31T14:35:21;2.50;;;0.68;;
63536;SDS011;49686;51.880;5.632;2023-03-31T14:37:53;6.07;;;1.52;;
63536;SDS011;49686;51.880;5.632;2023-03-31T14:40:21;5.50;;;1.10;;
63536;SDS011;49686;51.880;5.632;2023-03-31T14:42:49;4.13;;;1.00;;
63536;SDS011;49686;51.880;5.632;2023-03-31T14:45:19;4.18;;;0.90;;
63536;SDS011;49686;51.880;5.632;2023-03-31T14:47:53;4.50;;;1.35;;
63536;SDS011;49686;51.880;5.632;2023-03-31T14:50:26;3.28;;;1.10;;
63536;SDS011;49686;51.880;5.632;2023-03-31T14:52:55;6.32;;;1.25;;
63536;SDS011;49686;51.880;5.632;2023-03-31T14:55:22;5.05;;;1.30;;
63536;SDS011;49686;51.880;5.632;2023-03-31T14:58:04;4.88;;;0.90;;
63536;SDS011;49686;51.880;5.632;2023-03-31T15:00:35;4.53;;;1.58;;
63536;SDS011;49686;51.880;5.632;2023-03-31T15:03:05;2.45;;;1.10;;
63536;SDS011;49686;51.880;5.632;2023-03-31T15:05:35;2.97;;;1.20;;
63536;SDS011;49686;51.880;5.632;2023-03-31T15:10:32;2.75;;;0.85;;
63536;SDS011;49686;51.880;5.632;2023-03-31T15:13:05;3.53;;;1.13;;
63536;SDS011;49686;51.880;5.632;2023-03-31T15:15:35;4.55;;;1.10;;
63536;SDS011;49686;51.880;5.632;2023-03-31T15:18:03;7.72;;;1.40;;
63536;SDS011;49686;51.880;5.632;2023-03-31T15:20:30;3.67;;;1.08;;
63536;SDS011;49686;51.880;5.632;2023-03-31T15:23:02;5.10;;;1.23;;
63536;SDS011;49686;51.880;5.632;2023-03-31T15:25:31;4.03;;;1.00;;
63536;SDS011;49686;51.880;5.632;2023-03-31T15:28:00;2.60;;;1.00;;
63536;SDS011;49686;51.880;5.632;2023-03-31T15:30:32;5.00;;;1.30;;
63536;SDS011;49686;51.880;5.632;2023-03-31T15:33:04;4.32;;;0.95;;
63536;SDS011;49686;51.880;5.632;2023-03-31T15:35:45;2.53;;;0.90;;
63536;SDS011;49686;51.880;5.632;2023-03-31T15:38:13;2.65;;;0.88;;
63536;SDS011;49686;51.880;5.632;2023-03-31T15:40:40;4.50;;;1.00;;
63536;SDS011;49686;51.880;5.632;2023-03-31T15:43:11;5.40;;;1.30;;
63536;SDS011;49686;51.880;5.632;2023-03-31T15:45:51;5.00;;;1.58;;
63536;SDS011;49686;51.880;5.632;2023-03-31T15:48:22;2.30;;;1.27;;
63536;SDS011;49686;51.880;5.632;2023-03-31T15:50:55;3.13;;;0.90;;